Terminal Aerodrome Forecast
Issued by NWS Atlanta, GA

Home | Current Version | Previous Version | Text Only | Print | Product List | Glossary On
Versions: 1 2 3 4 5 6 7 8 9 10 11 12 13 14 15 16 17 18 19 20 21 22 23 24 25 26 27 28 29 30 31 32 33 34 35 36 37 38 39 40 41
000
FTUS42 KFFC 220500
TAFAHN
TAF
KAHN 220523Z 2206/2306 25004KT P6SM VCSH SCT060 BKN080
     FM221000 33004KT 5SM BR SCT050
     FM221300 35005KT P6SM SCT040
     FM221600 03006KT P6SM FEW035 SCT150
     FM221800 04008KT P6SM SCT060
     FM222300 02004KT P6SM SKC=

USA.gov is the U.S. government's official web portal to all federal, state and local government web resources and services.